Time;durP1;ratioP1;P1;durP2;ratioP2;P2;SDS_P1;SDS_P2;PMS_P1;PMS_P2;Temp;Humidity;BMP_temperature;BMP_pressure;BME280_temperature;BME280_humidity;BME280_pressure;Samples;Min_cycle;Max_cycle;Signal;HPM_P1;HPM_P2
2023/04/25 00:01:46;;;;;;;;;;;;;;;-142.75;100.00;77479.84;5007033;28;19921;-66
2023/04/25 00:04:12;;;;;;;;;;;;;;;-142.75;100.00;77473.94;4999635;28;19960;-66
2023/04/25 00:06:37;;;;;;;;;;;;;;;-142.75;100.00;77483.78;5006751;28;20267;-67
2023/04/25 00:09:10;;;;;;;;;;;;;;;-142.75;100.00;77489.69;5007221;28;20386;-67
2023/04/25 00:11:36;;;;;;;;;;;;;;;-142.75;100.00;77548.75;5014226;28;19925;-67
2023/04/25 00:14:02;;;;;;;;;;;;;;;-142.75;100.00;77521.19;5005458;28;19921;-66
2023/04/25 00:16:28;;;;;;;;;;;;;;;-142.75;100.00;77534.97;5007484;28;19917;-67
2023/04/25 00:18:54;;;;;;;;;;;;;;;-142.75;100.00;77507.41;5007086;28;19914;-67
2023/04/25 00:21:20;;;;;;;;;;;;;;;-142.75;100.00;77515.28;5006957;28;20024;-67
2023/04/25 00:23:47;;;;;;;;;;;;;;;-142.75;100.00;77511.34;5006432;28;20549;-67
2023/04/25 00:26:12;;;;;;;;;;;;;;;-142.75;100.00;77515.28;4997618;28;20395;-67
2023/04/25 00:28:39;;;;;;;;;;;;;;;-142.75;100.00;77507.41;5005536;28;19920;-66
2023/04/25 00:31:04;;;;;;;;;;;;;;;-142.75;100.00;77517.25;5007358;28;19995;-66
2023/04/25 00:33:29;;;;;;;;;;;;;;;-142.75;100.00;77525.13;5006542;28;20320;-66
2023/04/25 00:35:55;;;;;;;;;;;;;;;-142.75;100.00;77519.22;5006231;28;19921;-66
2023/04/25 00:38:20;;;;;;;;;;;;;;;-142.75;100.00;77507.41;5005919;28;19917;-66
2023/04/25 00:40:45;;;;;;;;;;;;;;;-142.75;100.00;77515.28;5006420;28;19935;-66
2023/04/25 00:43:10;;;;;;;;;;;;;;;-142.75;100.00;77529.06;5006188;28;20303;-67
2023/04/25 00:45:37;;;;;;;;;;;;;;;-142.75;100.00;77542.84;5010804;28;19971;-67
2023/04/25 00:48:07;;;;;;;;;;;;;;;-142.75;100.00;77590.09;5006691;28;19921;-67
2023/04/25 00:50:36;;;;;;;;;;;;;;;-142.75;100.00;77550.72;5001103;28;20370;-67
2023/04/25 00:53:01;;;;;;;;;;;;;;;-142.75;100.00;77558.59;5006439;28;20076;-67
2023/04/25 00:55:27;;;;;;;;;;;;;;;-142.75;100.00;77570.41;5006072;28;20294;-67
2023/04/25 00:57:52;;;;;;;;;;;;;;;-142.75;100.00;77592.06;5005976;28;19917;-66
2023/04/25 01:00:18;;;;;;;;;;;;;;;-142.75;100.00;77594.03;5007041;28;20368;-67
2023/04/25 01:02:44;;;;;;;;;;;;;;;-142.75;100.00;77597.97;5006223;28;19913;-66
2023/04/25 01:05:10;;;;;;;;;;;;;;;-142.75;100.00;77597.97;5008336;28;19917;-66
2023/04/25 01:07:35;;;;;;;;;;;;;;;-142.75;100.00;77578.28;5009449;28;19925;-66
2023/04/25 01:10:03;;;;;;;;;;;;;;;-142.75;100.00;77582.22;5008039;28;20321;-67
2023/04/25 01:12:28;;;;;;;;;;;;;;;-142.75;100.00;77562.53;5005929;28;19967;-66
2023/04/25 01:14:53;;;;;;;;;;;;;;;-142.75;100.00;77554.66;5005821;28;20007;-66
2023/04/25 01:17:19;;;;;;;;;;;;;;;-142.75;100.00;77570.41;5010575;28;20302;-66
2023/04/25 01:19:47;;;;;;;;;;;;;;;-142.75;100.00;77556.63;5006434;28;19960;-66
2023/04/25 01:22:14;;;;;;;;;;;;;;;-142.75;100.00;77572.38;4994459;28;19913;-67
2023/04/25 01:24:39;;;;;;;;;;;;;;;-142.75;100.00;77562.53;5005456;28;20038;-66
2023/04/25 01:27:05;;;;;;;;;;;;;;;-142.75;100.00;77554.66;5005876;28;19984;-67
2023/04/25 01:29:30;;;;;;;;;;;;;;;-142.75;100.00;77562.53;5010538;28;19913;-67
2023/04/25 01:31:58;;;;;;;;;;;;;;;-142.75;100.00;77548.75;5006129;28;19913;-66
2023/04/25 01:34:23;;;;;;;;;;;;;;;-142.75;100.00;77546.78;5005509;28;19921;-66
2023/04/25 01:36:49;;;;;;;;;;;;;;;-142.75;100.00;77542.84;5005779;28;19921;-67
2023/04/25 01:39:15;;;;;;;;;;;;;;;-142.75;100.00;77548.75;5012117;28;19940;-67
2023/04/25 01:41:40;;;;;;;;;;;;;;;-142.75;100.00;77550.72;5005981;28;19952;-67
2023/04/25 01:44:05;;;;;;;;;;;;;;;-142.75;100.00;77538.91;5014520;28;20008;-66
2023/04/25 01:46:30;;;;;;;;;;;;;;;-142.75;100.00;77542.84;5006179;28;20391;-66
2023/04/25 01:48:56;;;;;;;;;;;;;;;-142.75;100.00;77562.53;5005968;28;19976;-66
2023/04/25 01:51:21;;;;;;;;;;;;;;;-142.75;100.00;77562.53;5005813;28;19913;-67
2023/04/25 01:53:46;;;;;;;;;;;;;;;-142.75;100.00;77550.72;5005194;28;20406;-66
2023/04/25 01:56:11;;;;;;;;;;;;;;;-142.75;100.00;77574.34;5005782;28;19936;-66
2023/04/25 01:58:37;;;;;;;;;;;;;;;-142.75;100.00;77586.16;5016438;28;19914;-66
2023/04/25 02:01:02;;;;;;;;;;;;;;;-142.75;100.00;77586.16;5006024;28;19913;-66
2023/04/25 02:03:29;;;;;;;;;;;;;;;-142.75;100.00;77597.97;4995274;28;19913;-66
2023/04/25 02:05:54;;;;;;;;;;;;;;;-142.75;100.00;77576.31;5011535;28;20138;-66
2023/04/25 02:08:19;;;;;;;;;;;;;;;-142.75;100.00;77586.16;4996587;28;19921;-67
2023/04/25 02:10:44;;;;;;;;;;;;;;;-142.75;100.00;77584.19;5008427;28;20498;-67
2023/04/25 02:13:10;;;;;;;;;;;;;;;-142.75;100.00;77588.13;5007717;28;20290;-66
2023/04/25 02:15:35;;;;;;;;;;;;;;;-142.75;100.00;77582.22;5009207;28;20326;-66
2023/04/25 02:18:01;;;;;;;;;;;;;;;-142.75;100.00;77590.09;5009960;28;20087;-66
2023/04/25 02:20:26;;;;;;;;;;;;;;;-142.75;100.00;77609.78;5009580;28;19920;-66
2023/04/25 02:22:51;;;;;;;;;;;;;;;-142.75;100.00;77605.84;5008941;28;19913;-67
2023/04/25 02:25:19;;;;;;;;;;;;;;;-142.75;100.00;77596.00;5010446;28;19914;-66
2023/04/25 02:27:45;;;;;;;;;;;;;;;-142.75;100.00;77592.06;5020032;28;19999;-66
2023/04/25 02:30:11;;;;;;;;;;;;;;;-142.75;100.00;77576.31;5009172;28;20358;-67
2023/04/25 02:32:36;;;;;;;;;;;;;;;-142.75;100.00;77586.16;5008794;28;20476;-66
2023/04/25 02:35:03;;;;;;;;;;;;;;;-142.75;100.00;77590.09;5014637;28;19913;-66
2023/04/25 02:37:36;;;;;;;;;;;;;;;-142.75;100.00;77596.00;5008913;28;20454;-67
2023/04/25 02:40:02;;;;;;;;;;;;;;;-142.75;100.00;77601.91;5017261;28;20385;-66
2023/04/25 02:42:28;;;;;;;;;;;;;;;-142.75;100.00;77641.28;5018133;28;19913;-66
2023/04/25 02:44:53;;;;;;;;;;;;;;;-142.75;100.00;77645.22;4995410;28;19984;-66
2023/04/25 02:47:18;;;;;;;;;;;;;;;-142.75;100.00;77651.13;5009215;28;19913;-66
2023/04/25 02:49:44;;;;;;;;;;;;;;;-142.75;100.00;77649.16;5008792;28;19913;-66
2023/04/25 02:52:10;;;;;;;;;;;;;;;-142.75;100.00;77633.41;5008603;28;19952;-66
2023/04/25 02:54:35;;;;;;;;;;;;;;;-142.75;100.00;77615.69;5007934;28;19960;-66
2023/04/25 02:57:02;;;;;;;;;;;;;;;-142.75;100.00;77613.72;5008707;28;19924;-66
2023/04/25 02:59:27;;;;;;;;;;;;;;;-142.75;100.00;77609.78;5008618;28;19919;-66
2023/04/25 03:01:52;;;;;;;;;;;;;;;-142.75;100.00;77601.91;5008692;28;19913;-66
2023/04/25 03:04:19;;;;;;;;;;;;;;;-142.75;100.00;77590.09;5008083;28;19953;-67
2023/04/25 03:06:44;;;;;;;;;;;;;;;-142.75;100.00;77592.06;5000952;28;19913;-67
2023/04/25 03:09:09;;;;;;;;;;;;;;;-142.75;100.00;77586.16;5008376;28;19933;-67
2023/04/25 03:11:37;;;;;;;;;;;;;;;-142.75;100.00;77578.28;5008331;28;19913;-66
2023/04/25 03:14:02;;;;;;;;;;;;;;;-142.75;100.00;77582.22;5014616;28;19939;-66
2023/04/25 03:16:28;;;;;;;;;;;;;;;-142.75;100.00;77586.16;5008473;28;20376;-66
2023/04/25 03:18:53;;;;;;;;;;;;;;;-142.75;100.00;77582.22;5008183;28;19967;-67
2023/04/25 03:21:18;;;;;;;;;;;;;;;-142.75;100.00;77586.16;5008086;28;19917;-66
2023/04/25 03:23:43;;;;;;;;;;;;;;;-142.75;100.00;77590.09;5007427;28;19913;-66
2023/04/25 03:26:08;;;;;;;;;;;;;;;-142.75;100.00;77596.00;5008061;28;19917;-66
2023/04/25 03:28:34;;;;;;;;;;;;;;;-142.75;100.00;77609.78;5008155;28;19920;-67
2023/04/25 03:30:59;;;;;;;;;;;;;;;-142.75;100.00;77580.25;5008327;28;20028;-67
2023/04/25 03:33:24;;;;;;;;;;;;;;;-142.75;100.00;77574.34;5007549;28;21197;-66
2023/04/25 03:35:50;;;;;;;;;;;;;;;-142.75;100.00;77572.38;5007683;28;19928;-66
2023/04/25 03:38:15;;;;;;;;;;;;;;;-142.75;100.00;77550.72;5007676;28;19918;-66
2023/04/25 03:40:40;;;;;;;;;;;;;;;-142.75;100.00;77554.66;5007720;28;19920;-66
2023/04/25 03:43:06;;;;;;;;;;;;;;;-142.75;100.00;77566.47;5007138;28;20436;-66
2023/04/25 03:45:31;;;;;;;;;;;;;;;-142.75;100.00;77558.59;5007535;28;19918;-66
2023/04/25 03:47:56;;;;;;;;;;;;;;;-142.75;100.00;77572.38;5007850;28;20013;-66
2023/04/25 03:50:21;;;;;;;;;;;;;;;-142.75;100.00;77594.03;5007886;28;19920;-67
2023/04/25 03:52:46;;;;;;;;;;;;;;;-142.75;100.00;77586.16;5007149;28;19913;-66
2023/04/25 03:55:12;;;;;;;;;;;;;;;-142.75;100.00;77590.09;5007952;28;19913;-66
2023/04/25 03:57:37;;;;;;;;;;;;;;;-142.75;100.00;77578.28;5024776;28;19917;-66
2023/04/25 04:00:03;;;;;;;;;;;;;;;-142.75;100.00;77588.13;5009967;28;19920;-66
2023/04/25 04:02:29;;;;;;;;;;;;;;;-142.75;100.00;77588.13;4998231;28;19922;-66
2023/04/25 04:04:56;;;;;;;;;;;;;;;-142.75;100.00;77576.31;5023236;28;19921;-67
2023/04/25 04:07:21;;;;;;;;;;;;;;;-142.75;100.00;77590.09;5009786;28;20310;-66
2023/04/25 04:09:46;;;;;;;;;;;;;;;-142.75;100.00;77578.28;5009590;28;19913;-67
2023/04/25 04:12:11;;;;;;;;;;;;;;;-142.75;100.00;77572.38;5009705;28;20358;-66
2023/04/25 04:14:37;;;;;;;;;;;;;;;-142.75;100.00;77568.44;5009182;28;19933;-66
2023/04/25 04:17:02;;;;;;;;;;;;;;;-142.75;100.00;77578.28;5010005;28;20313;-66
2023/04/25 04:19:27;;;;;;;;;;;;;;;-142.75;100.00;77570.41;5024573;28;19916;-67
2023/04/25 04:21:52;;;;;;;;;;;;;;;-142.75;100.00;77574.34;5009446;28;19923;-67
2023/04/25 04:24:17;;;;;;;;;;;;;;;-142.75;100.00;77578.28;5007031;28;20011;-66
2023/04/25 04:26:44;;;;;;;;;;;;;;;-142.75;100.00;77580.25;5009519;28;19957;-66
2023/04/25 04:29:10;;;;;;;;;;;;;;;-142.75;100.00;77566.47;5010212;28;20309;-66
2023/04/25 04:31:35;;;;;;;;;;;;;;;-142.75;100.00;77578.28;5010338;28;19917;-66
2023/04/25 04:34:01;;;;;;;;;;;;;;;-142.75;100.00;77574.34;5010539;28;19913;-66
2023/04/25 04:36:26;;;;;;;;;;;;;;;-142.75;100.00;77580.25;5008730;28;19913;-67
2023/04/25 04:38:52;;;;;;;;;;;;;;;-142.75;100.00;77576.31;5008551;28;20345;-67
2023/04/25 04:41:19;;;;;;;;;;;;;;;-142.75;100.00;77572.38;5008974;28;19914;-66
2023/04/25 04:43:44;;;;;;;;;;;;;;;-142.75;100.00;77562.53;5008614;28;20385;-66
2023/04/25 04:46:10;;;;;;;;;;;;;;;-142.75;100.00;77570.41;5009002;28;20004;-66
2023/04/25 04:48:35;;;;;;;;;;;;;;;-142.75;100.00;77560.56;5009150;28;19975;-67
2023/04/25 04:51:00;;;;;;;;;;;;;;;-142.75;100.00;77554.66;5008999;28;19944;-67
2023/04/25 04:53:26;;;;;;;;;;;;;;;-142.75;100.00;77552.69;5008723;28;19917;-67
2023/04/25 04:55:51;;;;;;;;;;;;;;;-142.75;100.00;77534.97;5008725;28;19925;-66
2023/04/25 04:58:16;;;;;;;;;;;;;;;-142.75;100.00;77550.72;5008563;28;19918;-67
2023/04/25 05:00:42;;;;;;;;;;;;;;;-142.75;100.00;77546.78;5008730;28;19914;-67
2023/04/25 05:03:07;;;;;;;;;;;;;;;-142.75;100.00;77558.59;5008500;28;19920;-67
2023/04/25 05:05:32;;;;;;;;;;;;;;;-142.75;100.00;77574.34;5008959;28;20004;-66
2023/04/25 05:07:57;;;;;;;;;;;;;;;-142.75;100.00;77590.09;5009220;28;19949;-66
2023/04/25 05:10:23;;;;;;;;;;;;;;;-142.75;100.00;77594.03;5011375;28;20004;-66
2023/04/25 05:12:48;;;;;;;;;;;;;;;-142.75;100.00;77578.28;5008101;28;20051;-66
2023/04/25 05:15:13;;;;;;;;;;;;;;;-142.75;100.00;77580.25;5008379;28;19975;-66
2023/04/25 05:17:38;;;;;;;;;;;;;;;-142.75;100.00;77601.91;5008510;28;19921;-66
2023/04/25 05:20:05;;;;;;;;;;;;;;;-142.75;100.00;77609.78;5008487;28;19913;-67
2023/04/25 05:22:31;;;;;;;;;;;;;;;-142.75;100.00;77611.75;5008408;28;20382;-66
2023/04/25 05:24:56;;;;;;;;;;;;;;;-142.75;100.00;77607.81;5008022;28;19968;-67
2023/04/25 05:27:21;;;;;;;;;;;;;;;-142.75;100.00;77615.69;5008442;28;20000;-66
2023/04/25 05:29:46;;;;;;;;;;;;;;;-142.75;100.00;77617.66;5008524;28;20280;-66
2023/04/25 05:32:12;;;;;;;;;;;;;;;-142.75;100.00;77609.78;5008180;28;19913;-67
2023/04/25 05:34:37;;;;;;;;;;;;;;;-142.75;100.00;77609.78;5007917;28;19920;-66
2023/04/25 05:37:02;;;;;;;;;;;;;;;-142.75;100.00;77621.59;5008299;28;19972;-67
2023/04/25 05:39:27;;;;;;;;;;;;;;;-142.75;100.00;77621.59;5008272;28;19913;-66
2023/04/25 05:41:53;;;;;;;;;;;;;;;-142.75;100.00;77621.59;5007611;28;19921;-66
2023/04/25 05:44:19;;;;;;;;;;;;;;;-142.75;100.00;77605.84;5008536;28;19914;-66
2023/04/25 05:46:44;;;;;;;;;;;;;;;-142.75;100.00;77582.22;5012208;28;19921;-66
2023/04/25 05:49:09;;;;;;;;;;;;;;;-142.75;100.00;77556.63;5012198;28;19918;-66
2023/04/25 05:51:34;;;;;;;;;;;;;;;-142.75;100.00;77562.53;5012323;28;20451;-67
2023/04/25 05:54:00;;;;;;;;;;;;;;;-142.75;100.00;77550.72;5026829;28;20302;-67
2023/04/25 05:56:25;;;;;;;;;;;;;;;-142.75;100.00;77546.78;5011955;28;19920;-66
2023/04/25 05:58:50;;;;;;;;;;;;;;;-142.75;100.00;77552.69;5011686;28;19920;-66
2023/04/25 06:01:16;;;;;;;;;;;;;;;-142.75;100.00;77552.69;5011974;28;19920;-66
2023/04/25 06:03:42;;;;;;;;;;;;;;;-142.75;100.00;77570.41;5026691;28;20016;-67
2023/04/25 06:06:08;;;;;;;;;;;;;;;-142.75;100.00;77601.91;5025030;28;20342;-66
2023/04/25 06:08:33;;;;;;;;;;;;;;;-142.75;100.00;77574.34;5011934;28;19949;-67
2023/04/25 06:10:58;;;;;;;;;;;;;;;-142.75;100.00;77597.97;5011752;28;19967;-67
2023/04/25 06:13:24;;;;;;;;;;;;;;;-142.75;100.00;77623.56;5025032;28;20528;-66
2023/04/25 06:15:49;;;;;;;;;;;;;;;-142.75;100.00;77627.50;5026684;28;20489;-67
2023/04/25 06:18:14;;;;;;;;;;;;;;;-142.75;100.00;77655.06;5011693;28;20417;-67
2023/04/25 06:20:39;;;;;;;;;;;;;;;-142.75;100.00;77649.16;5011504;28;19913;-67
2023/04/25 06:23:04;;;;;;;;;;;;;;;-142.75;100.00;77672.78;5010700;28;19918;-68
2023/04/25 06:25:30;;;;;;;;;;;;;;;-142.75;100.00;77720.03;5011147;28;19944;-67
2023/04/25 06:27:55;;;;;;;;;;;;;;;-142.75;100.00;77757.47;5011509;28;19960;-67
2023/04/25 06:30:24;;;;;;;;;;;;;;;-142.75;100.00;77753.53;5010874;28;20389;-67
2023/04/25 06:32:49;;;;;;;;;;;;;;;-142.75;100.00;77814.56;5026344;28;19917;-66
2023/04/25 06:35:15;;;;;;;;;;;;;;;-142.75;100.00;77814.56;5006711;28;19929;-66
2023/04/25 06:37:40;;;;;;;;;;;;;;;-142.75;100.00;77785.03;5010695;28;20020;-66
2023/04/25 06:40:05;;;;;;;;;;;;;;;-142.75;100.00;77759.44;5011585;28;19913;-66
2023/04/25 06:42:31;;;;;;;;;;;;;;;-142.75;100.00;77751.56;5011458;28;19921;-67
2023/04/25 06:44:56;;;;;;;;;;;;;;;-142.75;100.00;77737.78;5012487;28;20370;-66
2023/04/25 06:47:21;;;;;;;;;;;;;;;-142.75;100.00;77743.69;5011505;28;20393;-66
2023/04/25 06:49:46;;;;;;;;;;;;;;;-142.75;100.00;77722.00;5012602;28;19992;-66
2023/04/25 06:52:11;;;;;;;;;;;;;;;-142.75;100.00;77716.09;5013365;28;19921;-66
2023/04/25 06:54:37;;;;;;;;;;;;;;;-142.75;100.00;77694.44;5012377;28;19913;-66
2023/04/25 06:57:02;;;;;;;;;;;;;;;-142.75;100.00;77674.75;5012079;28;20020;-67
2023/04/25 06:59:27;;;;;;;;;;;;;;;-142.75;100.00;77674.75;5010842;28;19913;-67
2023/04/25 07:01:53;;;;;;;;;;;;;;;-142.75;100.00;77668.84;5010939;28;19913;-67
2023/04/25 07:04:18;;;;;;;;;;;;;;;-142.75;100.00;77653.09;5011002;28;19913;-67
2023/04/25 07:06:43;;;;;;;;;;;;;;;-142.75;100.00;77645.22;5022608;28;20433;-66
2023/04/25 07:09:12;;;;;;;;;;;;;;;-142.75;100.00;77649.16;5008695;28;19918;-66
2023/04/25 07:11:37;;;;;;;;;;;;;;;-142.75;100.00;77639.31;5007176;28;19913;-67
2023/04/25 07:14:03;;;;;;;;;;;;;;;-142.75;100.00;77633.41;5007714;28;20302;-67
2023/04/25 07:16:28;;;;;;;;;;;;;;;-142.75;100.00;77645.22;5008718;28;19913;-67
2023/04/25 07:18:53;;;;;;;;;;;;;;;-142.75;100.00;77631.44;5009769;28;19967;-66
2023/04/25 07:21:18;;;;;;;;;;;;;;;-142.75;100.00;77603.88;5010414;28;19917;-66
2023/04/25 07:23:44;;;;;;;;;;;;;;;-142.75;100.00;77596.00;5009268;28;19920;-66
2023/04/25 07:26:09;;;;;;;;;;;;;;;-142.75;100.00;77609.78;5009675;28;19967;-66
2023/04/25 07:28:34;;;;;;;;;;;;;;;-142.75;100.00;77582.22;5004648;28;19940;-66
2023/04/25 07:31:00;;;;;;;;;;;;;;;-142.75;100.00;77554.66;5009965;28;19914;-66
2023/04/25 07:33:25;;;;;;;;;;;;;;;-142.75;100.00;77550.72;5009837;28;19913;-66
2023/04/25 07:35:50;;;;;;;;;;;;;;;-142.75;100.00;77538.91;5010054;28;20279;-66
2023/04/25 07:38:15;;;;;;;;;;;;;;;-142.75;100.00;77544.81;5025149;28;19924;-67
2023/04/25 07:40:41;;;;;;;;;;;;;;;-142.75;100.00;77515.28;5009952;28;20382;-66
2023/04/25 07:43:06;;;;;;;;;;;;;;;-142.75;100.00;77471.97;5009613;28;19914;-66
2023/04/25 07:45:31;;;;;;;;;;;;;;;-142.75;100.00;77432.56;5010126;28;19979;-66
2023/04/25 07:47:57;;;;;;;;;;;;;;;-142.75;100.00;77397.13;5024954;28;19917;-67
2023/04/25 07:50:22;;;;;;;;;;;;;;;-142.75;100.00;77397.13;5009938;28;20003;-67
2023/04/25 07:52:47;;;;;;;;;;;;;;;-142.75;100.00;77420.75;5009571;28;20000;-67
2023/04/25 07:55:15;;;;;;;;;;;;;;;-142.75;100.00;77361.69;5008385;28;20367;-67
2023/04/25 07:57:40;;;;;;;;;;;;;;;-142.75;100.00;77308.53;5009687;28;19921;-66
2023/04/25 08:00:09;;;;;;;;;;;;;;;-142.75;100.00;77284.91;5009263;28;19913;-65
2023/04/25 08:02:34;;;;;;;;;;;;;;;-142.75;100.00;77251.44;5009740;28;19913;-64
2023/04/25 08:04:59;;;;;;;;;;;;;;;-142.75;100.00;77247.50;5001349;28;19975;-66
2023/04/25 08:07:25;;;;;;;;;;;;;;;-142.75;100.00;77251.44;5008261;28;19922;-66
2023/04/25 08:09:50;;;;;;;;;;;;;;;-142.75;100.00;77324.28;5009382;28;19995;-66
2023/04/25 08:12:15;;;;;;;;;;;;;;;-142.75;100.00;77353.81;5009542;28;19945;-66
2023/04/25 08:14:40;;;;;;;;;;;;;;;-142.75;92.57;77408.94;5008905;28;19952;-66
2023/04/25 08:17:05;;;;;;;;;;;;;;;-142.75;91.11;77466.03;5008818;28;19925;-65
2023/04/25 08:19:31;;;;;;;;;;;;;;;-142.75;91.02;77471.97;5009178;28;19914;-66
2023/04/25 08:21:56;;;;;;;;;;;;;;;-142.75;93.20;77487.72;5021823;28;19914;-66
2023/04/25 08:24:22;;;;;;;;;;;;;;;-142.75;97.66;77387.28;5008542;28;19932;-67
2023/04/25 08:26:47;;;;;;;;;;;;;;;-142.75;97.02;77334.13;5019854;28;20064;-66
2023/04/25 08:29:12;;;;;;;;;;;;;;;-142.75;89.49;77389.25;5008902;28;20374;-66
2023/04/25 08:31:38;;;;;;;;;;;;;;;-142.75;86.28;77401.06;5003743;28;19914;-66
2023/04/25 08:34:03;;;;;;;;;;;;;;;-142.75;84.99;77430.59;5008789;28;19913;-66
2023/04/25 08:36:28;;;;;;;;;;;;;;;-142.75;84.99;77487.72;5008557;28;19920;-66
2023/04/25 08:38:53;;;;;;;;;;;;;;;-142.75;86.74;77534.97;5023648;28;19920;-67
2023/04/25 08:41:20;;;;;;;;;;;;;;;-142.75;89.50;77536.94;5024071;28;20383;-64
2023/04/25 08:43:48;;;;;;;;;;;;;;;-142.75;91.91;77531.03;5008555;28;19914;-68
2023/04/25 08:46:17;;;;;;;;;;;;;;;-142.75;92.51;77531.03;5008632;28;19913;-68
2023/04/25 08:48:42;;;;;;;;;;;;;;;-142.75;93.57;77550.72;5008580;28;19914;-68
2023/04/25 08:51:09;;;;;;;;;;;;;;;-142.75;94.05;77495.59;5008585;28;19917;-67
2023/04/25 08:53:35;;;;;;;;;;;;;;;-142.75;96.50;77405.00;5008333;28;20004;-66
2023/04/25 08:56:03;;;;;;;;;;;;;;;-142.75;89.63;77322.31;5008437;28;19917;-68
2023/04/25 08:58:29;;;;;;;;;;;;;;;-142.75;84.63;77277.03;5011939;28;19917;-68
2023/04/25 09:00:54;;;;;;;;;;;;;;;-142.75;83.99;77282.94;5008586;28;19925;-67
2023/04/25 09:03:20;;;;;;;;;;;;;;;-142.75;87.15;77365.63;5008313;28;20000;-67
2023/04/25 09:05:45;;;;;;;;;;;;;;;-142.75;91.49;77414.84;5008505;28;19955;-67
2023/04/25 09:08:10;;;;;;;;;;;;;;;-142.75;91.86;77420.75;5008504;28;20379;-68
2023/04/25 09:10:45;;;;;;;;;;;;;;;-142.75;92.17;77377.44;5004702;28;20290;-71
2023/04/25 09:13:14;;;;;;;;;;;;;;;-142.75;91.62;77353.81;5006480;28;20043;-68
2023/04/25 09:15:51;;;;;;;;;;;;;;;-142.75;87.37;77369.56;5006767;28;19928;-68
2023/04/25 09:18:21;;;;;;;;;;;;;;;-142.75;88.22;77355.78;5001239;28;20703;-68
2023/04/25 09:20:47;;;;;;;;;;;;;;;-142.75;86.04;77347.91;5005723;28;19921;-68
2023/04/25 09:23:14;;;;;;;;;;;;;;;-142.75;85.34;77282.94;5006838;28;19921;-68
2023/04/25 09:25:40;;;;;;;;;;;;;;;-142.75;83.33;77251.44;5006987;28;20055;-68
2023/04/25 09:28:06;;;;;;;;;;;;;;;-142.75;81.37;77223.88;5023442;28;19917;-67
2023/04/25 09:30:32;;;;;;;;;;;;;;;-142.75;78.65;77269.16;5008493;28;19917;-68
2023/04/25 09:33:04;;;;;;;;;;;;;;;-142.75;77.96;77284.91;5006815;28;19920;-68
2023/04/25 09:35:29;;;;;;;;;;;;;;;-142.75;77.34;77263.25;5001295;28;20017;-69
2023/04/25 09:37:55;;;;;;;;;;;;;;;-142.75;78.80;77310.50;5006013;28;20390;-68
2023/04/25 09:40:20;;;;;;;;;;;;;;;-142.75;79.24;77363.66;5007725;28;20387;-68
2023/04/25 09:42:46;;;;;;;;;;;;;;;-142.75;79.21;77479.84;5007606;28;19932;-68
2023/04/25 09:45:13;;;;;;;;;;;;;;;-142.75;89.33;77466.03;5007786;28;19917;-68
2023/04/25 09:47:38;;;;;;;;;;;;;;;-142.75;100.00;77385.31;5008128;28;20413;-68
2023/04/25 09:50:13;;;;;;;;;;;;;;;-142.75;100.00;77282.94;5008015;28;19944;-67
2023/04/25 09:52:38;;;;;;;;;;;;;;;-142.75;100.00;77255.38;5006356;28;19951;-68
2023/04/25 09:55:06;;;;;;;;;;;;;;;-142.75;100.00;77217.97;5007435;28;19936;-68
2023/04/25 09:57:32;;;;;;;;;;;;;;;-142.75;94.31;77156.94;5007866;28;19997;-68
2023/04/25 09:59:59;;;;;;;;;;;;;;;-142.75;90.97;77166.78;5008059;28;20008;-68
2023/04/25 10:02:26;;;;;;;;;;;;;;;-142.75;89.89;77190.41;5007872;28;20585;-68
2023/04/25 10:04:54;;;;;;;;;;;;;;;-142.75;89.70;77168.75;5004955;28;19975;-68
2023/04/25 10:07:21;;;;;;;;;;;;;;;-142.75;89.80;77133.31;5007643;28;20389;-68
2023/04/25 10:09:48;;;;;;;;;;;;;;;-142.75;91.70;77060.47;5007655;28;20387;-66
2023/04/25 10:12:13;;;;;;;;;;;;;;;-142.75;87.38;77066.38;5021085;28;19921;-66
2023/04/25 10:14:39;;;;;;;;;;;;;;;-142.75;87.39;77044.72;5007202;28;19914;-68
2023/04/25 10:17:05;;;;;;;;;;;;;;;-142.75;85.59;77036.84;5007181;28;19939;-68
2023/04/25 10:19:31;;;;;;;;;;;;;;;-142.75;84.24;77056.53;5007816;28;19929;-66
2023/04/25 10:22:08;;;;;;;;;;;;;;;-142.75;82.81;77147.09;5007378;28;19966;-66
2023/04/25 10:24:35;;;;;;;;;;;;;;;-142.75;79.73;77277.03;5007553;28;20293;-66
2023/04/25 10:27:01;;;;;;;;;;;;;;;-142.75;86.34;77353.81;5007828;28;20004;-66
2023/04/25 10:29:26;;;;;;;;;;;;;;;-142.75;92.14;77399.09;5007622;28;19913;-68
2023/04/25 10:31:52;;;;;;;;;;;;;;;-142.75;93.21;77406.97;5010607;28;19913;-68
2023/04/25 10:34:17;;;;;;;;;;;;;;;-142.75;98.57;77373.50;5002209;28;19948;-68
2023/04/25 10:36:42;;;;;;;;;;;;;;;-142.75;95.70;77286.88;5011882;28;19914;-69
2023/04/25 10:39:09;;;;;;;;;;;;;;;-142.75;90.98;77237.66;5011548;28;19917;-68
2023/04/25 10:41:48;;;;;;;;;;;;;;;-142.75;88.99;77208.13;5010804;28;19917;-68
2023/04/25 10:44:13;;;;;;;;;;;;;;;-142.75;85.80;77239.63;5009552;28;19940;-68
2023/04/25 10:46:38;;;;;;;;;;;;;;;-142.75;80.87;77282.94;5010843;28;19913;-68
2023/04/25 10:49:03;;;;;;;;;;;;;;;-142.75;82.36;77279.00;5011120;28;19913;-68
2023/04/25 10:51:30;;;;;;;;;;;;;;;-142.75;82.05;77255.38;5011175;28;20083;-68
2023/04/25 10:54:03;;;;;;;;;;;;;;;-142.75;81.69;77284.91;5010292;28;20297;-68
2023/04/25 10:56:29;;;;;;;;;;;;;;;-142.75;81.95;77290.81;5023714;28;19913;-68
2023/04/25 10:59:21;;;;;;;;;;;;;;;-142.75;82.73;77294.75;5005074;28;19921;-68
2023/04/25 11:01:48;;;;;;;;;;;;;;;-142.75;82.32;77255.38;5006770;28;20047;-68
2023/04/25 11:04:20;;;;;;;;;;;;;;;-142.75;82.57;77143.16;5010350;28;19967;-68
2023/04/25 11:07:05;;;;;;;;;;;;;;;-142.75;78.99;77058.50;5010688;28;20051;-68
2023/04/25 11:09:32;;;;;;;;;;;;;;;-142.75;77.84;77046.69;5010353;28;19920;-68
2023/04/25 11:11:58;;;;;;;;;;;;;;;-142.75;75.75;77141.19;5024559;28;20382;-68
2023/04/25 11:14:23;;;;;;;;;;;;;;;-142.75;72.61;77204.19;5010269;28;19914;-68
2023/04/25 11:16:58;;;;;;;;;;;;;;;-142.75;70.76;77194.34;5010295;28;20439;-68
2023/04/25 11:19:24;;;;;;;;;;;;;;;-142.75;70.20;77105.75;5010215;28;19962;-68
2023/04/25 11:21:50;;;;;;;;;;;;;;;-142.75;71.33;77082.13;5010108;28;19925;-68
2023/04/25 11:24:18;;;;;;;;;;;;;;;-142.75;69.95;77028.97;5009415;28;19913;-67
2023/04/25 11:26:47;;;;;;;;;;;;;;;-142.75;68.45;76981.72;5009423;28;19914;-68
2023/04/25 11:29:12;;;;;;;;;;;;;;;-142.75;65.89;77054.56;5010099;28;19914;-67
2023/04/25 11:31:37;;;;;;;;;;;;;;;-142.75;66.38;77027.00;5022142;28;19935;-67
2023/04/25 11:34:02;;;;;;;;;;;;;;;-142.75;69.69;77103.78;5009732;28;19913;-68
2023/04/25 11:36:28;;;;;;;;;;;;;;;-142.75;70.45;77178.59;5009755;28;19920;-68
2023/04/25 11:38:53;;;;;;;;;;;;;;;-142.75;69.16;77119.53;5007508;28;20386;-68
2023/04/25 11:41:22;;;;;;;;;;;;;;;-142.75;68.55;77064.41;5006401;28;19917;-66
2023/04/25 11:43:48;;;;;;;;;;;;;;;-142.75;68.86;77141.19;5008353;28;19945;-65
2023/04/25 11:46:13;;;;;;;;;;;;;;;-142.75;70.10;77070.31;5009051;28;20393;-65
2023/04/25 11:48:39;;;;;;;;;;;;;;;-142.75;69.46;77072.28;5008334;28;20008;-65
2023/04/25 11:51:04;;;;;;;;;;;;;;;-142.75;68.01;77137.25;5008649;28;19917;-65
2023/04/25 11:53:29;;;;;;;;;;;;;;;-142.75;68.69;77180.56;5009120;28;19949;-66
2023/04/25 11:55:54;;;;;;;;;;;;;;;-142.75;70.72;77082.13;5006108;28;20357;-65
2023/04/25 11:58:20;;;;;;;;;;;;;;;-142.75;67.47;77058.50;5009714;28;20023;-65
2023/04/25 12:00:45;;;;;;;;;;;;;;;-142.75;68.37;77011.25;5009688;28;19913;-65
2023/04/25 12:03:10;;;;;;;;;;;;;;;-142.75;69.01;76948.25;5009173;28;19922;-65
2023/04/25 12:05:37;;;;;;;;;;;;;;;-142.75;65.50;76908.88;5008072;28;20360;-65
2023/04/25 12:08:15;;;;;;;;;;;;;;;-142.75;65.43;76960.06;5008673;28;20282;-66
2023/04/25 12:10:42;;;;;;;;;;;;;;;-142.75;68.06;76965.97;5008438;28;19914;-66
2023/04/25 12:13:18;;;;;;;;;;;;;;;-142.75;65.83;77019.13;5024219;28;19917;-65
2023/04/25 12:15:43;;;;;;;;;;;;;;;-142.75;61.62;76977.78;5008628;28;19948;-65